Metar Aviation Weather Data     LEVC Valencia Airport



Temperature
15°C Temperature
13°C Dewpoint
88% Humidity



Wind
8 KM/H
5 MPH
2 M/S
4 KTS



90°
East
Current Conditions

Mostly Cloudy Mostly Cloudy
Pressure 1013.92 (hPa) - 29.94 (inHg)
Visibility 6.2 (mile) - 10 (km)
Airport
Airport-code LEVC

Location: Valencia Airport
Distance: 18 (km)

Metar:
LEVC 202014Z 09004KT 9999 BKN009 15/13 Q1014 NOSIG

Time: 20-04-2021 22:14 CEST

Follow @meteolliria2013